createdAt,value
2023-09-17T00:00:21.643Z,19.52
2023-09-17T00:03:05.171Z,19.55
2023-09-17T00:05:48.042Z,19.57
2023-09-17T00:08:32.298Z,19.57
2023-09-17T00:11:15.215Z,19.55
2023-09-17T00:13:58.120Z,19.53
2023-09-17T00:16:41.514Z,19.50
2023-09-17T00:19:25.173Z,19.51
2023-09-17T00:22:10.377Z,19.50
2023-09-17T00:24:54.632Z,19.47
2023-09-17T00:27:37.525Z,19.46
2023-09-17T00:30:20.505Z,19.44
2023-09-17T00:33:04.010Z,19.42
2023-09-17T00:35:46.887Z,19.41
2023-09-17T00:38:29.773Z,19.38
2023-09-17T00:41:14.317Z,19.38
2023-09-17T00:43:57.219Z,19.36
2023-09-17T00:46:40.738Z,19.36
2023-09-17T00:49:24.617Z,19.34
2023-09-17T00:52:15.763Z,19.35
2023-09-17T00:54:59.089Z,19.34
2023-09-17T00:57:46.760Z,19.35
2023-09-17T01:00:30.268Z,19.34
2023-09-17T01:03:14.133Z,19.32
2023-09-17T01:05:58.915Z,19.33
2023-09-17T01:08:42.148Z,19.34
2023-09-17T01:11:25.511Z,19.31
2023-09-17T01:14:16.658Z,19.28
2023-09-17T01:17:02.190Z,19.27
2023-09-17T01:19:45.399Z,19.27
2023-09-17T01:22:36.328Z,19.28
2023-09-17T01:25:32.746Z,19.27
2023-09-17T01:28:17.604Z,19.23
2023-09-17T01:31:00.317Z,19.25
2023-09-17T01:33:43.244Z,19.27
2023-09-17T01:36:34.267Z,19.25
2023-09-17T01:39:24.353Z,19.20
2023-09-17T01:42:08.443Z,19.18
2023-09-17T01:44:53.653Z,19.19
2023-09-17T01:47:37.663Z,19.19
2023-09-17T01:50:24.308Z,19.19
2023-09-17T01:53:07.512Z,19.21
2023-09-17T01:55:52.142Z,19.21
2023-09-17T01:58:36.243Z,19.24
2023-09-17T02:01:20.699Z,19.23
2023-09-17T02:04:03.785Z,19.20
2023-09-17T02:06:46.999Z,19.18
2023-09-17T02:09:30.116Z,19.16
2023-09-17T02:12:13.152Z,19.15
2023-09-17T02:14:55.991Z,19.08
2023-09-17T02:17:41.014Z,19.04
2023-09-17T02:20:24.009Z,18.96
2023-09-17T02:23:07.411Z,18.86
2023-09-17T02:25:50.362Z,18.82
2023-09-17T02:28:33.533Z,18.73
2023-09-17T02:31:16.534Z,18.68
2023-09-17T02:34:00.868Z,18.66
2023-09-17T02:36:43.753Z,18.79
2023-09-17T02:39:26.741Z,18.83
2023-09-17T02:42:09.595Z,18.87
2023-09-17T02:44:52.764Z,18.90
2023-09-17T02:47:36.029Z,18.94
2023-09-17T02:50:20.928Z,18.93
2023-09-17T02:53:04.654Z,18.87
2023-09-17T02:55:47.629Z,18.82
2023-09-17T02:58:30.528Z,18.78
2023-09-17T03:01:19.105Z,18.74
2023-09-17T03:04:02.254Z,18.77
2023-09-17T03:06:46.785Z,18.80
2023-09-17T03:09:30.614Z,18.83
2023-09-17T03:12:13.841Z,18.85
2023-09-17T03:14:57.562Z,18.81
2023-09-17T03:17:41.092Z,18.86
2023-09-17T03:20:23.970Z,18.91
2023-09-17T03:23:08.222Z,18.94
2023-09-17T03:25:54.193Z,18.98
2023-09-17T03:28:37.773Z,19.01
2023-09-17T03:31:21.781Z,19.01
2023-09-17T03:34:05.634Z,19.00
2023-09-17T03:36:48.634Z,19.00
2023-09-17T03:39:32.895Z,19.00
2023-09-17T03:42:15.814Z,18.98
2023-09-17T03:44:59.307Z,18.99
2023-09-17T03:47:43.640Z,18.98
2023-09-17T03:50:28.938Z,18.91
2023-09-17T03:53:12.418Z,18.84
2023-09-17T03:55:56.836Z,18.88
2023-09-17T03:58:40.029Z,18.91
2023-09-17T04:01:23.176Z,18.90
2023-09-17T04:04:07.239Z,18.88
2023-09-17T04:06:50.135Z,18.89
2023-09-17T04:09:33.022Z,18.90
2023-09-17T04:12:18.251Z,18.92
2023-09-17T04:15:01.197Z,18.92
2023-09-17T04:17:45.026Z,18.90
2023-09-17T04:20:28.366Z,18.74
2023-09-17T04:23:11.292Z,18.83
2023-09-17T04:25:56.160Z,18.84
2023-09-17T04:28:41.002Z,18.81
2023-09-17T04:31:24.121Z,18.82
2023-09-17T04:34:07.162Z,18.80
2023-09-17T04:36:51.450Z,18.76
2023-09-17T04:39:34.602Z,18.72
2023-09-17T04:42:18.384Z,18.65
2023-09-17T04:45:03.372Z,18.58
2023-09-17T04:47:46.422Z,18.53
2023-09-17T04:50:29.900Z,18.49
2023-09-17T04:53:13.231Z,18.47
2023-09-17T04:55:56.464Z,18.48
2023-09-17T04:58:45.857Z,18.46
2023-09-17T05:01:30.714Z,18.47
2023-09-17T05:04:14.149Z,18.50
2023-09-17T05:06:57.276Z,18.53
2023-09-17T05:09:41.482Z,18.55
2023-09-17T05:12:24.752Z,18.59
2023-09-17T05:15:08.270Z,18.61
2023-09-17T05:17:52.864Z,18.63
2023-09-17T05:20:36.440Z,18.65
2023-09-17T05:23:20.450Z,18.68
2023-09-17T05:26:06.920Z,18.72
2023-09-17T05:28:50.057Z,18.72
2023-09-17T05:31:34.058Z,18.71
2023-09-17T05:34:20.806Z,18.70
2023-09-17T05:37:03.985Z,18.65
2023-09-17T05:39:47.027Z,18.66
2023-09-17T05:42:30.462Z,18.56
2023-09-17T05:45:13.789Z,18.64
2023-09-17T05:47:57.653Z,18.71
2023-09-17T05:50:42.366Z,18.74
2023-09-17T05:53:26.589Z,18.80
2023-09-17T05:56:13.603Z,18.87
2023-09-17T05:58:59.044Z,18.90
2023-09-17T06:01:42.058Z,18.95
2023-09-17T06:04:25.090Z,18.94
2023-09-17T06:07:10.022Z,18.95
2023-09-17T06:09:53.039Z,18.94
2023-09-17T06:12:36.077Z,18.96
2023-09-17T06:15:20.412Z,18.99
2023-09-17T06:18:03.608Z,19.03
2023-09-17T06:20:48.969Z,19.04
2023-09-17T06:23:33.243Z,19.06
2023-09-17T06:26:16.539Z,19.09
2023-09-17T06:28:59.839Z,19.09
2023-09-17T06:31:43.095Z,19.13
2023-09-17T06:34:26.277Z,19.15
2023-09-17T06:37:09.289Z,19.19
2023-09-17T06:39:56.338Z,19.27
2023-09-17T06:42:39.533Z,19.33
2023-09-17T06:45:22.526Z,19.38
2023-09-17T06:48:05.853Z,19.42
2023-09-17T06:50:48.768Z,19.45
2023-09-17T06:53:31.645Z,19.46
2023-09-17T06:56:17.038Z,19.48
2023-09-17T06:59:00.067Z,19.44
2023-09-17T07:01:46.613Z,19.51
2023-09-17T07:04:29.742Z,19.54
2023-09-17T07:07:12.640Z,19.59
2023-09-17T07:09:55.626Z,19.62
2023-09-17T07:12:39.849Z,19.63
2023-09-17T07:15:23.240Z,19.68
2023-09-17T07:18:08.710Z,19.73
2023-09-17T07:20:51.710Z,19.73
2023-09-17T07:23:34.816Z,19.73
2023-09-17T07:26:17.690Z,19.77
2023-09-17T07:29:01.967Z,19.80
2023-09-17T07:31:48.438Z,19.82
2023-09-17T07:34:32.331Z,19.88
2023-09-17T07:37:15.357Z,19.92
2023-09-17T07:40:02.314Z,19.96
2023-09-17T07:42:45.261Z,19.89
2023-09-17T07:45:29.521Z,19.93
2023-09-17T07:48:12.407Z,19.96
2023-09-17T07:50:58.777Z,20.01
2023-09-17T07:53:41.642Z,19.97
2023-09-17T07:56:25.529Z,20.03
2023-09-17T07:59:08.578Z,20.13
2023-09-17T08:01:52.981Z,20.31
2023-09-17T08:04:36.103Z,20.32
2023-09-17T08:07:19.301Z,20.39
2023-09-17T08:10:02.267Z,20.43
2023-09-17T08:12:45.091Z,20.52
2023-09-17T08:15:28.790Z,20.59
2023-09-17T08:18:13.119Z,20.71
2023-09-17T08:20:56.077Z,20.73
2023-09-17T08:23:39.074Z,20.76
2023-09-17T08:26:22.671Z,20.87
2023-09-17T08:29:06.534Z,20.96
2023-09-17T08:31:49.758Z,20.98
2023-09-17T08:34:34.049Z,21.09
2023-09-17T08:37:18.583Z,21.17
2023-09-17T08:40:01.746Z,21.25
2023-09-17T08:42:45.012Z,21.33
2023-09-17T08:45:30.496Z,21.42
2023-09-17T08:48:14.905Z,21.53
2023-09-17T08:51:01.704Z,21.63
2023-09-17T08:53:53.162Z,21.75
2023-09-17T08:56:39.356Z,21.83
2023-09-17T08:59:27.029Z,21.95
2023-09-17T09:02:18.263Z,22.07
2023-09-17T09:05:02.828Z,22.21
2023-09-17T09:07:49.740Z,22.37
2023-09-17T09:10:32.884Z,22.59
2023-09-17T09:13:16.139Z,22.83
2023-09-17T09:15:59.594Z,23.04
2023-09-17T09:18:42.473Z,23.30
2023-09-17T09:21:26.055Z,23.45
2023-09-17T09:24:10.672Z,23.83
2023-09-17T09:26:54.329Z,24.06
2023-09-17T09:29:37.204Z,24.27
2023-09-17T09:32:20.751Z,24.58
2023-09-17T09:35:03.920Z,24.83
2023-09-17T09:37:47.792Z,25.09
2023-09-17T09:40:35.943Z,25.44
2023-09-17T09:43:30.305Z,25.85
2023-09-17T09:46:13.281Z,26.13
2023-09-17T09:49:02.159Z,26.28
2023-09-17T09:51:45.095Z,26.38
2023-09-17T09:54:27.948Z,26.46
2023-09-17T09:57:13.933Z,26.37
2023-09-17T09:59:56.960Z,26.68
2023-09-17T10:02:41.798Z,27.03
2023-09-17T10:05:34.832Z,27.28
2023-09-17T10:08:19.281Z,27.47
2023-09-17T10:11:03.320Z,27.69
2023-09-17T10:13:47.738Z,27.87
2023-09-17T10:16:31.429Z,28.02
2023-09-17T10:19:19.994Z,28.05
2023-09-17T10:22:07.537Z,28.40
2023-09-17T10:24:52.951Z,28.11
2023-09-17T10:27:38.792Z,28.16
2023-09-17T10:30:24.650Z,28.19
2023-09-17T10:33:09.706Z,28.43
2023-09-17T10:35:53.658Z,28.39
2023-09-17T10:38:39.450Z,28.42
2023-09-17T10:41:24.411Z,28.61
2023-09-17T10:44:09.982Z,28.90
2023-09-17T10:46:55.173Z,29.13
2023-09-17T10:49:41.004Z,29.34
2023-09-17T10:52:24.474Z,29.54
2023-09-17T10:55:09.109Z,29.74
2023-09-17T10:58:01.105Z,29.70
2023-09-17T11:00:46.024Z,29.80
2023-09-17T11:03:34.401Z,29.90
2023-09-17T11:06:25.186Z,30.01
2023-09-17T11:09:08.747Z,29.92
2023-09-17T11:11:52.876Z,29.79
2023-09-17T11:14:35.792Z,29.80
2023-09-17T11:17:19.434Z,30.08
2023-09-17T11:20:13.725Z,30.36
2023-09-17T11:22:57.536Z,30.50
2023-09-17T11:25:40.855Z,30.61
2023-09-17T11:28:36.959Z,30.80
2023-09-17T11:31:20.198Z,30.87
2023-09-17T11:34:05.103Z,30.67
2023-09-17T11:36:49.715Z,30.17
2023-09-17T11:39:34.868Z,30.05
2023-09-17T11:42:17.829Z,30.12
2023-09-17T11:45:01.088Z,30.24
2023-09-17T11:47:44.236Z,30.24
2023-09-17T11:50:27.548Z,30.52
2023-09-17T11:53:11.792Z,30.67
2023-09-17T11:55:54.761Z,30.85
2023-09-17T11:58:37.705Z,31.10
2023-09-17T12:01:20.691Z,31.25
2023-09-17T12:04:07.165Z,31.21
2023-09-17T12:06:52.450Z,31.34
2023-09-17T12:09:50.039Z,31.60
2023-09-17T12:12:36.932Z,31.81
2023-09-17T12:15:19.939Z,31.90
2023-09-17T12:18:02.945Z,31.84
2023-09-17T12:20:52.972Z,31.74
2023-09-17T12:23:48.364Z,31.88
2023-09-17T12:26:37.585Z,32.03
2023-09-17T12:29:20.451Z,32.19
2023-09-17T12:32:03.803Z,32.31
2023-09-17T12:34:46.734Z,32.39
2023-09-17T12:37:30.054Z,32.34
2023-09-17T12:40:14.468Z,32.48
2023-09-17T12:42:58.856Z,32.70
2023-09-17T12:45:42.079Z,32.84
2023-09-17T12:48:27.393Z,32.82
2023-09-17T12:51:10.507Z,32.67
2023-09-17T12:53:53.604Z,32.62
2023-09-17T12:56:37.214Z,32.78
2023-09-17T12:59:29.868Z,32.88
2023-09-17T13:02:14.428Z,32.97
2023-09-17T13:04:57.533Z,33.09
2023-09-17T13:07:40.693Z,33.17
2023-09-17T13:10:27.010Z,33.06
2023-09-17T13:13:11.166Z,33.14
2023-09-17T13:15:56.544Z,32.88
2023-09-17T13:18:40.194Z,32.77
2023-09-17T13:21:23.260Z,32.64
2023-09-17T13:24:06.383Z,32.71
2023-09-17T13:26:49.268Z,32.40
2023-09-17T13:29:37.771Z,32.45
2023-09-17T13:32:22.244Z,32.44
2023-09-17T13:35:11.506Z,32.41
2023-09-17T13:37:54.532Z,32.36
2023-09-17T13:40:44.996Z,32.10
2023-09-17T13:43:28.329Z,31.86
2023-09-17T13:46:16.816Z,31.44
2023-09-17T13:49:01.038Z,31.45
2023-09-17T13:51:43.917Z,31.42
2023-09-17T13:54:27.003Z,31.22
2023-09-17T13:57:09.941Z,31.06
2023-09-17T13:59:53.454Z,30.97
2023-09-17T14:02:36.903Z,30.84
2023-09-17T14:05:21.218Z,30.69
2023-09-17T14:08:04.384Z,30.53
2023-09-17T14:10:47.374Z,30.15
2023-09-17T14:13:30.280Z,29.62
2023-09-17T14:16:13.198Z,29.70
2023-09-17T14:18:56.344Z,29.64
2023-09-17T14:21:41.426Z,29.59
2023-09-17T14:24:24.670Z,29.60
2023-09-17T14:27:07.517Z,29.54
2023-09-17T14:29:50.360Z,29.48
2023-09-17T14:32:33.364Z,29.36
2023-09-17T14:35:16.779Z,29.31
2023-09-17T14:38:01.076Z,29.31
2023-09-17T14:40:44.031Z,29.39
2023-09-17T14:43:26.878Z,29.54
2023-09-17T14:46:12.309Z,29.64
2023-09-17T14:48:56.345Z,29.75
2023-09-17T14:51:39.235Z,29.67
2023-09-17T14:54:23.470Z,29.73
2023-09-17T14:57:06.413Z,29.78
2023-09-17T14:59:49.297Z,29.87
2023-09-17T15:02:32.605Z,29.98
2023-09-17T15:05:15.633Z,30.07
2023-09-17T15:08:00.324Z,30.10
2023-09-17T15:10:45.379Z,30.08
2023-09-17T15:13:28.549Z,30.03
2023-09-17T15:16:11.419Z,29.76
2023-09-17T15:18:54.644Z,29.45
2023-09-17T15:21:38.611Z,29.13
2023-09-17T15:24:21.899Z,28.88
2023-09-17T15:27:09.323Z,28.57
2023-09-17T15:29:52.339Z,28.27
2023-09-17T15:32:35.610Z,28.08
2023-09-17T15:35:20.490Z,27.95
2023-09-17T15:38:06.902Z,27.75
2023-09-17T15:40:51.873Z,27.38
2023-09-17T15:43:38.718Z,27.04
2023-09-17T15:46:22.525Z,26.69
2023-09-17T15:49:05.941Z,26.51
2023-09-17T15:51:49.255Z,26.37
2023-09-17T15:54:32.199Z,26.20
2023-09-17T15:57:15.763Z,26.13
2023-09-17T15:59:59.992Z,26.16
2023-09-17T16:02:43.544Z,26.10
2023-09-17T16:05:26.906Z,26.11
2023-09-17T16:08:10.074Z,26.16
2023-09-17T16:10:54.984Z,26.34
2023-09-17T16:13:39.395Z,26.29
2023-09-17T16:16:25.134Z,26.33
2023-09-17T16:19:08.551Z,26.29
2023-09-17T16:21:51.963Z,26.23
2023-09-17T16:24:34.853Z,26.27
2023-09-17T16:27:17.868Z,26.14
2023-09-17T16:30:01.655Z,26.06
2023-09-17T16:32:48.954Z,25.97
2023-09-17T16:35:32.599Z,25.90
2023-09-17T16:38:16.378Z,25.79
2023-09-17T16:41:01.980Z,25.69
2023-09-17T16:43:45.304Z,25.62
2023-09-17T16:46:28.732Z,25.56
2023-09-17T16:49:13.228Z,25.47
2023-09-17T16:51:56.754Z,25.46
2023-09-17T16:54:41.940Z,25.43
2023-09-17T16:57:25.546Z,25.30
2023-09-17T17:00:09.617Z,25.16
2023-09-17T17:02:53.211Z,25.06
2023-09-17T17:05:37.675Z,24.94
2023-09-17T17:08:20.938Z,24.85
2023-09-17T17:11:04.377Z,24.84
2023-09-17T17:13:48.116Z,24.79
2023-09-17T17:16:31.731Z,24.69
2023-09-17T17:19:15.204Z,24.60
2023-09-17T17:22:00.114Z,24.52
2023-09-17T17:24:43.792Z,24.42
2023-09-17T17:27:26.800Z,24.38
2023-09-17T17:30:11.820Z,24.28
2023-09-17T17:32:55.773Z,24.23
2023-09-17T17:35:39.002Z,24.19
2023-09-17T17:38:23.343Z,24.14
2023-09-17T17:41:06.269Z,24.07
2023-09-17T17:43:49.220Z,24.09
2023-09-17T17:46:33.784Z,24.04
2023-09-17T17:49:16.662Z,23.96
2023-09-17T17:51:59.584Z,23.93
2023-09-17T17:54:43.790Z,23.90
2023-09-17T17:57:27.984Z,23.80
2023-09-17T18:00:11.890Z,23.75
2023-09-17T18:02:54.842Z,23.66
2023-09-17T18:05:37.845Z,23.69
2023-09-17T18:08:20.756Z,23.65
2023-09-17T18:11:06.276Z,23.59
2023-09-17T18:13:49.431Z,23.64
2023-09-17T18:16:32.766Z,23.61
2023-09-17T18:19:16.926Z,23.55
2023-09-17T18:22:00.658Z,23.52
2023-09-17T18:24:43.909Z,23.54
2023-09-17T18:27:28.286Z,23.56
2023-09-17T18:30:12.503Z,23.56
2023-09-17T18:32:55.676Z,23.50
2023-09-17T18:35:38.811Z,23.50
2023-09-17T18:38:21.934Z,23.43
2023-09-17T18:41:04.996Z,23.39
2023-09-17T18:43:50.040Z,23.36
2023-09-17T18:46:34.571Z,23.35
2023-09-17T18:49:19.776Z,23.33
2023-09-17T18:52:02.829Z,23.30
2023-09-17T18:54:47.219Z,23.26
2023-09-17T18:57:30.247Z,23.24
2023-09-17T19:00:17.308Z,23.23
2023-09-17T19:03:00.514Z,23.21
2023-09-17T19:05:45.323Z,23.19
2023-09-17T19:08:28.331Z,23.14
2023-09-17T19:11:11.632Z,23.10
2023-09-17T19:13:54.921Z,23.05
2023-09-17T19:16:39.529Z,23.01
2023-09-17T19:19:22.476Z,22.99
2023-09-17T19:22:10.290Z,23.02
2023-09-17T19:24:54.095Z,23.04
2023-09-17T19:27:37.759Z,23.00
2023-09-17T19:30:21.354Z,22.96
2023-09-17T19:33:06.508Z,22.93
2023-09-17T19:35:50.475Z,22.87
2023-09-17T19:38:37.291Z,22.79
2023-09-17T19:41:22.151Z,22.68
2023-09-17T19:44:05.833Z,22.52
2023-09-17T19:46:49.879Z,22.43
2023-09-17T19:49:34.650Z,22.36
2023-09-17T19:52:17.570Z,22.35
2023-09-17T19:55:00.551Z,22.27
2023-09-17T19:57:43.475Z,22.20
2023-09-17T20:00:26.928Z,22.15
2023-09-17T20:03:10.032Z,22.11
2023-09-17T20:05:54.965Z,22.04
2023-09-17T20:08:37.894Z,21.95
2023-09-17T20:11:21.210Z,21.85
2023-09-17T20:14:04.292Z,21.80
2023-09-17T20:16:47.246Z,21.73
2023-09-17T20:19:30.204Z,21.72
2023-09-17T20:22:14.439Z,21.73
2023-09-17T20:24:57.913Z,21.75
2023-09-17T20:27:41.257Z,21.81
2023-09-17T20:30:24.492Z,21.78
2023-09-17T20:33:09.026Z,21.79
2023-09-17T20:35:52.048Z,21.78
2023-09-17T20:38:37.137Z,21.78
2023-09-17T20:41:20.133Z,21.76
2023-09-17T20:44:03.260Z,21.77
2023-09-17T20:46:47.028Z,21.78
2023-09-17T20:49:30.005Z,21.79
2023-09-17T20:52:12.894Z,21.80
2023-09-17T20:54:57.111Z,21.77
2023-09-17T20:57:39.994Z,21.77
2023-09-17T21:00:23.001Z,21.78
2023-09-17T21:03:06.300Z,21.79
2023-09-17T21:05:50.441Z,21.81
2023-09-17T21:08:33.399Z,21.81
2023-09-17T21:11:19.008Z,21.83
2023-09-17T21:14:02.111Z,21.84
2023-09-17T21:16:45.075Z,21.87
2023-09-17T21:19:27.939Z,21.87
2023-09-17T21:22:12.322Z,21.84
2023-09-17T21:24:55.236Z,21.82
2023-09-17T21:27:40.833Z,21.80
2023-09-17T21:30:24.320Z,21.78
2023-09-17T21:33:07.269Z,21.75
2023-09-17T21:35:50.185Z,21.72
2023-09-17T21:38:33.526Z,21.70
2023-09-17T21:41:17.391Z,21.65
2023-09-17T21:44:02.759Z,21.62
2023-09-17T21:46:45.729Z,21.58
2023-09-17T21:49:28.690Z,21.52
2023-09-17T21:52:11.753Z,21.47
2023-09-17T21:54:54.652Z,21.43
2023-09-17T21:57:37.508Z,21.39
2023-09-17T22:00:24.977Z,21.38
2023-09-17T22:03:08.221Z,21.33
2023-09-17T22:05:52.012Z,21.29
2023-09-17T22:08:34.909Z,21.27
2023-09-17T22:11:17.893Z,21.24
2023-09-17T22:14:01.160Z,21.20
2023-09-17T22:16:45.460Z,21.19
2023-09-17T22:19:29.114Z,21.04
2023-09-17T22:22:12.164Z,21.01
2023-09-17T22:24:55.081Z,21.04
2023-09-17T22:27:38.105Z,20.96
2023-09-17T22:30:21.169Z,20.90
2023-09-17T22:33:05.937Z,20.87
2023-09-17T22:35:48.824Z,20.84
2023-09-17T22:38:31.766Z,20.82
2023-09-17T22:41:18.634Z,20.79
2023-09-17T22:44:16.359Z,20.78
2023-09-17T22:47:04.838Z,20.80
2023-09-17T22:49:49.091Z,20.81
2023-09-17T22:52:32.032Z,20.82
2023-09-17T22:55:15.282Z,20.90
2023-09-17T22:57:58.133Z,20.93
2023-09-17T23:00:41.749Z,20.97
2023-09-17T23:03:25.276Z,21.02
2023-09-17T23:06:09.613Z,21.01
2023-09-17T23:08:53.483Z,21.03
2023-09-17T23:11:37.731Z,21.05
2023-09-17T23:14:20.710Z,21.05
2023-09-17T23:17:03.764Z,21.04
2023-09-17T23:19:46.666Z,21.03
2023-09-17T23:22:30.889Z,21.02
2023-09-17T23:25:13.778Z,21.01
2023-09-17T23:27:56.658Z,20.96
2023-09-17T23:30:41.832Z,20.91
2023-09-17T23:33:25.430Z,20.87
2023-09-17T23:36:09.219Z,20.82
2023-09-17T23:38:54.175Z,20.75
2023-09-17T23:41:37.407Z,20.68
2023-09-17T23:44:20.640Z,20.66
2023-09-17T23:47:03.818Z,20.65
2023-09-17T23:49:46.925Z,20.61
2023-09-17T23:52:29.794Z,20.58
2023-09-17T23:55:14.208Z,20.55
2023-09-17T23:57:57.113Z,20.52
